Time;durP1;ratioP1;P1;durP2;ratioP2;P2;SDS_P1;SDS_P2;PMS_P1;PMS_P2;Temp;Humidity;BMP_temperature;BMP_pressure;BME280_temperature;BME280_humidity;BME280_pressure;Samples;Min_cycle;Max_cycle;Signal;HPM_P1;HPM_P2
2022/01/31 00:01:47;;;;;;;19.38;6.45;;;4.00;99.90;;;;;;4974539;28;20125;-62
2022/01/31 00:04:13;;;;;;;19.90;6.60;;;4.10;99.90;;;;;;4974115;28;20126;-62
2022/01/31 00:06:38;;;;;;;26.63;7.07;;;4.20;99.90;;;;;;4974295;28;20666;-62
2022/01/31 00:09:04;;;;;;;25.92;7.05;;;4.20;99.90;;;;;;4974218;28;20043;-63
2022/01/31 00:11:31;;;;;;;17.40;5.95;;;4.20;99.90;;;;;;4974248;28;20035;-62
2022/01/31 00:14:09;;;;;;;30.52;6.88;;;4.30;99.90;;;;;;4972998;28;20046;-62
2022/01/31 00:16:34;;;;;;;24.20;6.80;;;4.30;99.90;;;;;;4972689;28;20509;-62
2022/01/31 00:19:00;;;;;;;20.35;6.95;;;4.40;99.90;;;;;;4974117;28;20042;-63
2022/01/31 00:21:27;;;;;;;23.45;7.15;;;4.50;99.90;;;;;;4974113;28;20116;-62
2022/01/31 00:23:52;;;;;;;23.58;7.15;;;4.50;99.90;;;;;;4973946;28;20053;-62
2022/01/31 00:26:18;;;;;;;20.65;7.20;;;4.50;99.90;;;;;;4973919;28;20031;-62
2022/01/31 00:28:43;;;;;;;22.00;7.70;;;4.50;99.90;;;;;;4973576;28;20505;-62
2022/01/31 00:31:09;;;;;;;19.17;7.80;;;4.50;99.90;;;;;;4973759;28;20046;-62
2022/01/31 00:33:35;;;;;;;24.40;6.80;;;4.40;99.90;;;;;;4973612;28;20050;-62
2022/01/31 00:36:00;;;;;;;22.38;7.05;;;4.50;99.90;;;;;;4973917;28;20042;-62
2022/01/31 00:38:26;;;;;;;15.07;7.20;;;4.50;99.90;;;;;;4973647;28;20401;-62
2022/01/31 00:40:51;;;;;;;24.45;8.50;;;4.50;99.90;;;;;;4973506;28;20439;-62
2022/01/31 00:43:19;;;;;;;14.90;6.35;;;4.60;99.90;;;;;;4973295;28;20041;-62
2022/01/31 00:45:59;;;;;;;18.20;7.28;;;4.60;99.90;;;;;;4973888;28;20544;-62
2022/01/31 00:48:27;;;;;;;22.17;7.40;;;4.60;99.90;;;;;;4973463;28;20113;-63
2022/01/31 00:50:52;;;;;;;15.85;6.53;;;4.50;99.90;;;;;;4973519;28;20097;-62
2022/01/31 00:53:18;;;;;;;19.15;7.18;;;4.50;99.90;;;;;;4973260;28;20043;-62
2022/01/31 00:55:43;;;;;;;14.32;6.88;;;4.60;99.90;;;;;;4973208;28;20047;-62
2022/01/31 00:58:09;;;;;;;17.02;7.85;;;4.60;99.90;;;;;;4973500;28;20042;-62
2022/01/31 01:00:36;;;;;;;19.80;7.80;;;4.60;99.90;;;;;;4973248;28;20043;-62
2022/01/31 01:03:03;;;;;;;20.17;7.43;;;4.60;99.90;;;;;;4973070;28;20056;-61
2022/01/31 01:05:29;;;;;;;19.73;7.68;;;4.70;99.90;;;;;;4973146;28;20429;-62
2022/01/31 01:07:55;;;;;;;14.35;7.03;;;4.60;99.90;;;;;;4973289;28;20035;-63
2022/01/31 01:10:20;;;;;;;23.52;9.52;;;4.60;99.90;;;;;;4972426;28;20084;-61
2022/01/31 01:12:47;;;;;;;21.42;8.55;;;4.70;99.90;;;;;;4973026;28;20039;-62
2022/01/31 01:15:13;;;;;;;19.00;8.90;;;4.70;99.90;;;;;;4973156;28;20492;-62
2022/01/31 01:17:39;;;;;;;20.92;9.18;;;4.70;99.90;;;;;;4973155;28;20042;-62
2022/01/31 01:20:05;;;;;;;23.23;10.02;;;4.70;99.90;;;;;;4973011;28;20031;-62
2022/01/31 01:22:32;;;;;;;17.95;8.60;;;4.70;99.90;;;;;;4972592;28;20501;-62
2022/01/31 01:24:58;;;;;;;20.52;9.48;;;4.60;99.90;;;;;;4972604;28;20046;-63
2022/01/31 01:27:24;;;;;;;23.45;10.35;;;4.60;99.90;;;;;;4973149;28;20051;-63
2022/01/31 01:29:49;;;;;;;27.10;10.45;;;4.50;99.90;;;;;;4972680;28;20047;-63
2022/01/31 01:32:15;;;;;;;20.70;10.00;;;4.50;99.90;;;;;;4971638;28;20101;-62
2022/01/31 01:34:41;;;;;;;23.33;11.38;;;4.40;99.90;;;;;;4972520;28;20105;-62
2022/01/31 01:37:06;;;;;;;27.38;13.27;;;4.40;99.90;;;;;;4972630;28;20027;-62
2022/01/31 01:39:33;;;;;;;28.55;13.15;;;4.40;99.90;;;;;;4972547;28;20638;-62
2022/01/31 01:41:58;;;;;;;27.67;13.55;;;4.40;99.90;;;;;;4972706;28;20047;-62
2022/01/31 01:44:45;;;;;;;24.95;13.90;;;4.30;99.90;;;;;;4972363;28;20087;-62
2022/01/31 01:47:11;;;;;;;34.05;15.60;;;4.20;99.90;;;;;;4972595;28;20047;-62
2022/01/31 01:49:37;;;;;;;29.42;14.75;;;4.10;99.90;;;;;;4971224;28;20047;-62
2022/01/31 01:52:03;;;;;;;32.38;14.45;;;4.00;99.90;;;;;;4972175;28;20037;-62
2022/01/31 01:54:28;;;;;;;30.13;16.10;;;4.00;99.90;;;;;;4972073;28;20042;-62
2022/01/31 01:56:54;;;;;;;34.50;15.80;;;3.90;99.90;;;;;;4972353;28;20112;-61
2022/01/31 01:59:20;;;;;;;32.67;15.68;;;3.90;99.90;;;;;;4972516;28;20050;-61
2022/01/31 02:01:45;;;;;;;32.08;16.02;;;3.80;99.90;;;;;;4972084;28;20038;-61
2022/01/31 02:04:11;;;;;;;26.75;14.85;;;3.80;99.90;;;;;;4971864;28;20254;-62
2022/01/31 02:06:37;;;;;;;42.83;17.88;;;3.80;99.90;;;;;;4971843;28;20127;-62
2022/01/31 02:09:03;;;;;;;35.75;16.17;;;3.80;99.90;;;;;;4972328;28;20041;-63
2022/01/31 02:11:28;;;;;;;36.72;15.60;;;3.80;99.90;;;;;;4972163;28;20034;-62
2022/01/31 02:13:54;;;;;;;38.10;16.75;;;3.90;99.90;;;;;;4970441;28;20101;-62
2022/01/31 02:16:20;;;;;;;34.42;16.50;;;3.80;99.90;;;;;;4970511;28;20113;-61
2022/01/31 02:18:50;;;;;;;34.17;15.45;;;3.80;99.90;;;;;;4972286;28;20054;-62
2022/01/31 02:21:16;;;;;;;38.53;18.58;;;3.80;99.90;;;;;;4971024;28;20050;-62
2022/01/31 02:23:43;;;;;;;35.92;18.63;;;3.90;99.90;;;;;;4971776;28;20066;-62
2022/01/31 02:26:09;;;;;;;32.08;16.98;;;3.80;99.90;;;;;;4971842;28;20047;-62
2022/01/31 02:28:36;;;;;;;34.17;15.73;;;3.80;99.90;;;;;;4971724;28;20043;-63
2022/01/31 02:31:04;;;;;;;36.05;16.83;;;3.90;99.90;;;;;;4971646;28;20072;-63
2022/01/31 02:33:30;;;;;;;36.75;15.23;;;3.90;99.90;;;;;;4971392;28;20034;-62
2022/01/31 02:35:58;;;;;;;29.40;14.57;;;3.90;99.90;;;;;;4971229;28;20745;-63
2022/01/31 02:38:24;;;;;;;24.63;16.85;;;3.90;99.90;;;;;;4971708;28;20046;-62
2022/01/31 02:40:50;;;;;;;31.00;15.85;;;3.90;99.90;;;;;;4971620;28;20042;-62
2022/01/31 02:43:20;;;;;;;27.75;14.55;;;3.90;99.90;;;;;;4971435;28;20104;-62
2022/01/31 02:45:46;;;;;;;31.98;16.60;;;3.90;99.90;;;;;;4971451;28;20042;-63
2022/01/31 02:48:13;;;;;;;32.40;17.20;;;3.90;99.90;;;;;;4971158;28;20644;-62
2022/01/31 02:50:42;;;;;;;27.63;14.82;;;3.90;99.90;;;;;;4971525;28;20666;-61
2022/01/31 02:53:22;;;;;;;29.05;15.23;;;3.90;99.90;;;;;;4971292;28;20039;-62
2022/01/31 02:55:49;;;;;;;23.15;14.10;;;3.90;99.90;;;;;;4971313;28;20043;-62
2022/01/31 02:58:16;;;;;;;22.77;13.90;;;3.80;99.90;;;;;;4971173;28;20126;-62
2022/01/31 03:00:41;;;;;;;26.65;14.38;;;3.80;99.90;;;;;;4971034;28;20043;-62
2022/01/31 03:03:08;;;;;;;16.95;11.45;;;3.80;99.90;;;;;;4971196;28;20509;-62
2022/01/31 03:05:35;;;;;;;15.85;10.32;;;3.70;99.90;;;;;;4971317;28;20074;-62
2022/01/31 03:08:02;;;;;;;19.55;13.73;;;3.70;99.90;;;;;;4971288;28;20054;-62
2022/01/31 03:10:28;;;;;;;21.75;13.05;;;3.70;99.90;;;;;;4971205;28;20035;-61
2022/01/31 03:12:54;;;;;;;21.33;12.77;;;3.70;99.90;;;;;;4970991;28;20031;-62
2022/01/31 03:15:19;;;;;;;20.30;13.77;;;3.70;99.90;;;;;;4970986;28;20035;-62
2022/01/31 03:17:50;;;;;;;21.85;14.00;;;3.70;99.90;;;;;;4971299;28;20063;-62
2022/01/31 03:20:18;;;;;;;18.20;11.52;;;3.60;99.90;;;;;;4971165;28;20529;-62
2022/01/31 03:22:44;;;;;;;24.95;15.00;;;3.60;99.90;;;;;;4970859;28;20042;-61
2022/01/31 03:25:10;;;;;;;26.40;15.65;;;3.60;99.90;;;;;;4970981;28;20038;-63
2022/01/31 03:27:36;;;;;;;25.27;15.00;;;3.60;99.90;;;;;;4971189;28;20401;-62
2022/01/31 03:30:04;;;;;;;27.17;16.70;;;3.60;99.90;;;;;;4970632;28;20042;-62
2022/01/31 03:32:30;;;;;;;28.83;17.63;;;3.60;99.90;;;;;;4971140;28;20047;-62
2022/01/31 03:34:55;;;;;;;24.80;13.30;;;3.70;99.90;;;;;;4974967;28;20093;-63
2022/01/31 03:37:21;;;;;;;30.55;16.10;;;3.70;99.90;;;;;;4974920;28;20554;-63
2022/01/31 03:39:46;;;;;;;26.50;13.35;;;3.80;99.90;;;;;;4974998;28;20440;-62
2022/01/31 03:42:16;;;;;;;21.75;12.48;;;3.90;99.90;;;;;;4974764;28;20445;-62
2022/01/31 03:44:43;;;;;;;23.40;10.88;;;3.90;99.90;;;;;;4973116;28;20054;-62
2022/01/31 03:47:08;;;;;;;25.13;13.82;;;4.00;99.90;;;;;;4974817;28;20109;-63
2022/01/31 03:49:34;;;;;;;23.90;12.07;;;4.10;99.90;;;;;;4974857;28;20083;-62
2022/01/31 03:51:59;;;;;;;22.90;11.75;;;4.20;99.90;;;;;;4974670;28;20078;-62
2022/01/31 03:54:25;;;;;;;21.25;11.02;;;4.30;99.90;;;;;;4974179;28;20138;-62
2022/01/31 03:56:50;;;;;;;27.70;12.65;;;4.40;99.90;;;;;;4974547;28;20057;-62
2022/01/31 03:59:16;;;;;;;25.23;12.32;;;4.40;99.90;;;;;;4973021;28;20156;-62
2022/01/31 04:01:41;;;;;;;24.17;11.70;;;4.50;99.90;;;;;;4973291;28;20227;-62
2022/01/31 04:04:10;;;;;;;27.33;11.75;;;4.50;99.90;;;;;;4974234;28;20045;-63
2022/01/31 04:06:37;;;;;;;19.00;10.27;;;4.60;99.90;;;;;;4974350;28;20049;-62
2022/01/31 04:09:03;;;;;;;22.48;10.65;;;4.70;99.90;;;;;;4974183;28;20485;-62
2022/01/31 04:11:28;;;;;;;26.92;11.27;;;4.80;99.90;;;;;;4974248;28;20066;-62
2022/01/31 04:13:54;;;;;;;26.95;9.05;;;4.90;99.90;;;;;;4974080;28;20070;-62
2022/01/31 04:16:19;;;;;;;23.48;8.75;;;5.00;99.90;;;;;;4974191;28;20069;-62
2022/01/31 04:18:45;;;;;;;26.08;8.95;;;5.20;99.90;;;;;;4974050;28;20081;-61
2022/01/31 04:21:10;;;;;;;21.45;6.78;;;5.30;99.90;;;;;;4974080;28;20493;-62
2022/01/31 04:23:36;;;;;;;20.02;6.22;;;5.40;99.90;;;;;;4973932;28;20038;-63
2022/01/31 04:26:11;;;;;;;19.92;4.65;;;5.70;99.90;;;;;;4973736;28;20047;-62
2022/01/31 04:28:44;;;;;;;19.05;4.55;;;5.80;99.90;;;;;;4973938;28;20481;-62
2022/01/31 04:33:39;;;;;;;25.08;4.78;;;6.10;99.90;;;;;;4973771;28;20038;-62
2022/01/31 04:36:06;;;;;;;22.40;4.65;;;6.10;99.90;;;;;;4973706;28;20078;-62
2022/01/31 04:38:32;;;;;;;21.20;3.83;;;6.20;99.90;;;;;;4973557;28;20049;-63
2022/01/31 04:40:58;;;;;;;17.85;4.25;;;6.20;99.90;;;;;;4975345;28;20396;-61
2022/01/31 04:43:23;;;;;;;18.45;3.70;;;6.30;99.90;;;;;;4973517;28;20049;-62
2022/01/31 04:45:49;;;;;;;21.85;5.00;;;6.40;99.90;;;;;;4972771;28;20445;-62
2022/01/31 04:48:17;;;;;;;22.85;4.40;;;6.40;99.90;;;;;;4973574;28;20497;-62
2022/01/31 04:50:43;;;;;;;21.60;4.05;;;6.40;99.90;;;;;;4973483;28;20498;-62
2022/01/31 04:53:09;;;;;;;16.60;3.40;;;6.40;99.90;;;;;;4973192;28;20039;-62
2022/01/31 04:55:35;;;;;;;22.00;4.15;;;6.50;99.90;;;;;;4973121;28;20038;-62
2022/01/31 04:58:01;;;;;;;24.08;4.57;;;6.40;99.90;;;;;;4972131;28;20051;-62
2022/01/31 05:00:27;;;;;;;16.65;3.50;;;6.50;99.90;;;;;;4973461;28;20046;-62
2022/01/31 05:02:53;;;;;;;24.30;3.55;;;6.40;99.90;;;;;;4973246;28;20035;-62
2022/01/31 05:05:18;;;;;;;19.30;4.18;;;6.40;99.90;;;;;;4973364;28;20038;-61
2022/01/31 05:07:44;;;;;;;21.05;3.60;;;6.40;99.90;;;;;;4973084;28;20173;-62
2022/01/31 05:10:10;;;;;;;20.00;3.72;;;6.40;99.90;;;;;;4971728;28;20050;-62
2022/01/31 05:12:35;;;;;;;20.52;3.15;;;6.40;99.90;;;;;;4973047;28;20046;-62
2022/01/31 05:15:01;;;;;;;22.30;4.45;;;6.40;99.90;;;;;;4971944;28;20050;-62
2022/01/31 05:17:27;;;;;;;20.13;3.45;;;6.30;99.90;;;;;;4972887;28;20049;-61
2022/01/31 05:19:52;;;;;;;20.08;3.70;;;6.30;99.90;;;;;;4972840;28;20078;-61
2022/01/31 05:22:18;;;;;;;21.40;3.67;;;6.20;99.90;;;;;;4972832;28;20146;-62
2022/01/31 05:24:43;;;;;;;20.77;3.47;;;6.10;99.90;;;;;;4972804;28;20057;-62
2022/01/31 05:27:09;;;;;;;15.43;3.88;;;6.10;99.90;;;;;;4973154;28;20414;-62
2022/01/31 05:29:34;;;;;;;16.85;3.75;;;6.10;99.90;;;;;;4972758;28;20129;-62
2022/01/31 05:32:00;;;;;;;18.60;3.10;;;6.10;99.90;;;;;;4972830;28;20046;-63
2022/01/31 05:34:26;;;;;;;20.10;2.88;;;6.10;99.90;;;;;;4972543;28;20043;-62
2022/01/31 05:36:54;;;;;;;22.55;4.18;;;6.10;99.90;;;;;;4972883;28;20035;-63
2022/01/31 05:39:24;;;;;;;16.02;3.47;;;6.10;99.90;;;;;;4972845;28;20122;-62
2022/01/31 05:41:51;;;;;;;18.70;3.45;;;6.20;99.90;;;;;;4972853;28;20524;-63
2022/01/31 05:44:17;;;;;;;26.35;3.88;;;6.10;99.90;;;;;;4972345;28;20042;-62
2022/01/31 05:46:42;;;;;;;21.10;3.45;;;5.90;99.90;;;;;;4972647;28;20042;-62
2022/01/31 05:49:08;;;;;;;12.93;2.85;;;5.80;99.90;;;;;;4972380;28;20053;-62
2022/01/31 05:51:35;;;;;;;12.20;2.22;;;5.40;99.90;;;;;;4972200;28;20034;-61
2022/01/31 05:54:00;;;;;;;15.13;2.50;;;5.30;99.90;;;;;;4972236;28;20039;-63
2022/01/31 05:56:26;;;;;;;9.68;1.67;;;5.10;99.90;;;;;;4972302;28;20506;-62
2022/01/31 05:58:52;;;;;;;9.90;1.83;;;5.10;99.90;;;;;;4970943;28;20081;-63
2022/01/31 06:01:17;;;;;;;4.63;1.15;;;5.00;99.90;;;;;;4971571;28;20043;-63
2022/01/31 06:03:43;;;;;;;8.88;1.42;;;4.90;99.90;;;;;;4972353;28;20680;-62
2022/01/31 06:06:08;;;;;;;5.60;1.63;;;4.90;99.90;;;;;;4972303;28;20493;-62
2022/01/31 06:08:34;;;;;;;6.20;1.75;;;4.80;99.90;;;;;;4972251;28;20039;-63
2022/01/31 06:10:59;;;;;;;8.98;2.25;;;4.90;99.90;;;;;;4972167;28;20038;-63
2022/01/31 06:13:27;;;;;;;8.95;1.80;;;4.80;99.90;;;;;;4972342;28;20101;-63
2022/01/31 06:15:53;;;;;;;11.10;2.10;;;4.90;99.90;;;;;;4970952;28;20042;-62
2022/01/31 06:18:19;;;;;;;9.50;1.88;;;4.80;99.90;;;;;;4968910;28;20053;-63
2022/01/31 06:20:44;;;;;;;7.75;1.70;;;4.80;99.90;;;;;;4968615;28;20039;-62
2022/01/31 06:23:11;;;;;;;12.63;2.25;;;4.90;99.90;;;;;;4968690;28;20053;-62
2022/01/31 06:25:36;;;;;;;14.50;2.50;;;5.00;99.90;;;;;;4968810;28;20134;-62
2022/01/31 06:28:04;;;;;;;9.45;1.52;;;5.00;99.90;;;;;;4968658;28;20125;-62
2022/01/31 06:30:30;;;;;;;12.65;2.17;;;5.00;99.90;;;;;;4968350;28;20077;-61
2022/01/31 06:32:56;;;;;;;11.82;2.00;;;5.00;99.90;;;;;;4968543;28;20066;-62
2022/01/31 06:35:22;;;;;;;15.02;2.88;;;5.00;99.90;;;;;;4968499;28;20086;-62
2022/01/31 06:37:48;;;;;;;11.35;2.60;;;5.10;99.90;;;;;;4968275;28;20402;-62
2022/01/31 06:40:13;;;;;;;16.15;2.50;;;5.10;99.90;;;;;;4968265;28;20050;-62
2022/01/31 06:42:39;;;;;;;13.75;2.65;;;5.10;99.90;;;;;;4967955;28;20042;-62
2022/01/31 06:45:06;;;;;;;21.08;3.03;;;5.10;99.90;;;;;;4967495;28;20130;-62
2022/01/31 06:47:32;;;;;;;14.77;2.72;;;5.20;99.90;;;;;;4968491;28;20635;-62
2022/01/31 06:49:59;;;;;;;13.88;2.50;;;5.20;99.90;;;;;;4966877;28;20082;-62
2022/01/31 06:52:32;;;;;;;15.88;3.20;;;5.20;99.90;;;;;;4968372;28;20089;-62
2022/01/31 06:55:02;;;;;;;19.13;2.97;;;5.20;99.90;;;;;;4968237;28;20533;-61
2022/01/31 06:57:33;;;;;;;12.75;2.25;;;5.30;99.90;;;;;;4968581;28;20560;-62
2022/01/31 06:59:59;;;;;;;18.60;3.28;;;5.30;99.90;;;;;;4968285;28;20082;-62
2022/01/31 07:02:25;;;;;;;20.15;3.08;;;5.30;99.90;;;;;;4967984;28;20043;-61
2022/01/31 07:04:50;;;;;;;14.95;3.00;;;5.40;99.90;;;;;;4967839;28;20089;-62
2022/01/31 07:07:16;;;;;;;17.65;2.50;;;5.40;99.90;;;;;;4968297;28;20105;-62
2022/01/31 07:09:42;;;;;;;14.35;2.55;;;5.40;99.90;;;;;;4968228;28;20520;-61
2022/01/31 07:12:10;;;;;;;17.58;2.78;;;5.40;99.90;;;;;;4967682;28;20540;-61
2022/01/31 07:14:36;;;;;;;15.93;1.88;;;5.40;99.90;;;;;;4966014;28;20066;-61
2022/01/31 07:17:04;;;;;;;12.70;2.65;;;5.40;99.90;;;;;;4965829;28;20078;-61
2022/01/31 07:19:33;;;;;;;14.25;2.30;;;5.30;99.90;;;;;;4966720;28;20125;-61
2022/01/31 07:21:59;;;;;;;8.90;2.08;;;5.30;99.90;;;;;;4966515;28;20050;-62
2022/01/31 07:24:48;;;;;;;5.10;1.70;;;5.30;99.90;;;;;;4966191;28;20493;-61
2022/01/31 07:27:11;;;;;;;8.32;1.75;;;5.30;99.90;;;;;;4966337;28;20082;-61
2022/01/31 07:29:37;;;;;;;8.20;1.98;;;5.20;99.90;;;;;;4966798;28;20054;-61
2022/01/31 07:32:03;;;;;;;6.07;2.03;;;5.10;99.90;;;;;;4968075;28;20169;-62
2022/01/31 07:34:29;;;;;;;8.52;1.70;;;5.10;99.90;;;;;;4967611;28;20648;-61
2022/01/31 07:36:54;;;;;;;8.23;1.67;;;5.10;99.90;;;;;;4967875;28;20054;-61
2022/01/31 07:39:20;;;;;;;9.45;1.55;;;5.10;99.90;;;;;;4967848;28;20034;-62
2022/01/31 07:41:49;;;;;;;8.70;1.65;;;5.10;99.90;;;;;;4967377;28;20845;-61
2022/01/31 07:44:15;;;;;;;13.00;2.70;;;5.10;99.90;;;;;;4967479;28;20042;-61
2022/01/31 07:46:41;;;;;;;9.20;1.60;;;5.00;99.90;;;;;;4967784;28;20656;-61
2022/01/31 07:49:07;;;;;;;8.30;1.73;;;5.00;99.90;;;;;;4967709;28;20050;-62
2022/01/31 07:51:35;;;;;;;10.13;1.95;;;5.10;99.90;;;;;;4967656;28;20043;-62
2022/01/31 07:54:01;;;;;;;10.55;1.92;;;5.20;99.90;;;;;;4967077;28;20047;-62
2022/01/31 07:56:27;;;;;;;10.10;1.88;;;5.20;99.90;;;;;;4967450;28;20031;-61
2022/01/31 07:58:53;;;;;;;12.13;2.13;;;5.20;99.90;;;;;;4967517;28;20051;-61
2022/01/31 08:01:18;;;;;;;12.52;1.85;;;5.30;99.90;;;;;;4966387;28;20516;-62
2022/01/31 08:03:45;;;;;;;10.88;1.70;;;5.30;99.90;;;;;;4967530;28;20135;-62
2022/01/31 08:06:11;;;;;;;12.07;1.83;;;5.30;99.90;;;;;;4967312;28;20113;-61
2022/01/31 08:08:37;;;;;;;9.55;1.98;;;5.30;99.90;;;;;;4967654;28;20050;-62
2022/01/31 08:11:05;;;;;;;13.15;2.28;;;5.30;99.90;;;;;;4967585;28;20035;-61
2022/01/31 08:13:32;;;;;;;7.65;1.77;;;5.40;99.90;;;;;;4967200;28;20691;-61
2022/01/31 08:18:33;;;;;;;16.23;2.40;;;5.50;99.90;;;;;;4967157;28;20648;-62
2022/01/31 08:20:59;;;;;;;14.05;2.72;;;5.50;99.90;;;;;;4970059;28;20144;-62
2022/01/31 08:23:25;;;;;;;13.95;1.95;;;5.60;99.90;;;;;;4970665;28;20064;-62
2022/01/31 08:25:51;;;;;;;10.05;2.30;;;5.60;99.90;;;;;;4970618;28;20513;-61
2022/01/31 08:28:20;;;;;;;9.52;1.88;;;5.70;99.90;;;;;;4971090;28;20053;-62
2022/01/31 08:30:55;;;;;;;11.68;1.70;;;5.70;99.90;;;;;;4970748;28;20043;-62
2022/01/31 08:33:40;;;;;;;9.65;1.75;;;5.70;99.90;;;;;;4970697;28;20043;-62
2022/01/31 08:36:07;;;;;;;12.60;1.95;;;5.80;99.90;;;;;;4970464;28;20101;-62
2022/01/31 08:38:39;;;;;;;10.57;1.90;;;5.80;99.90;;;;;;4970888;28;20482;-61
2022/01/31 08:41:07;;;;;;;9.45;1.90;;;5.90;99.90;;;;;;4970525;28;20105;-62
2022/01/31 08:43:36;;;;;;;5.93;1.80;;;5.80;99.90;;;;;;4970613;28;20118;-61
2022/01/31 08:46:03;;;;;;;14.20;2.25;;;5.90;99.90;;;;;;4970499;28;20206;-62
2022/01/31 08:48:30;;;;;;;15.18;2.90;;;6.00;99.90;;;;;;4970683;28;20051;-61
2022/01/31 08:50:56;;;;;;;10.27;1.90;;;6.00;99.90;;;;;;4969409;28;20055;-61
2022/01/31 08:53:22;;;;;;;12.30;1.98;;;6.00;99.90;;;;;;4970098;28;20049;-61
2022/01/31 08:56:09;;;;;;;12.85;2.40;;;6.00;99.90;;;;;;4970373;28;20035;-62
2022/01/31 08:58:41;;;;;;;12.82;2.22;;;6.10;99.90;;;;;;4970430;28;20050;-61
2022/01/31 09:01:08;;;;;;;14.43;3.00;;;6.20;99.90;;;;;;4970191;28;20042;-62
2022/01/31 09:06:02;;;;;;;16.08;2.25;;;6.30;99.90;;;;;;4970081;28;20142;-62
2022/01/31 09:08:27;;;;;;;30.42;3.92;;;6.30;99.90;;;;;;4970407;28;20093;-62
2022/01/31 09:10:53;;;;;;;13.75;2.28;;;6.30;99.90;;;;;;4970467;28;20086;-61
2022/01/31 09:13:19;;;;;;;12.05;2.38;;;6.40;99.90;;;;;;4969896;28;20043;-61
2022/01/31 09:15:45;;;;;;;14.40;3.03;;;6.40;99.90;;;;;;4970118;28;20046;-61
2022/01/31 09:18:10;;;;;;;11.82;2.45;;;6.40;99.90;;;;;;4970055;28;20046;-62
2022/01/31 09:20:37;;;;;;;8.02;1.90;;;6.40;99.90;;;;;;4969645;28;20412;-62
2022/01/31 09:23:04;;;;;;;9.73;2.15;;;6.40;99.90;;;;;;4968862;28;20046;-61
2022/01/31 09:25:32;;;;;;;7.68;1.92;;;6.30;99.90;;;;;;4968605;28;20146;-62
2022/01/31 09:27:58;;;;;;;12.32;2.28;;;6.30;99.90;;;;;;4969734;28;20432;-61
2022/01/31 09:30:26;;;;;;;10.68;1.85;;;6.40;99.90;;;;;;4968981;28;20122;-62
2022/01/31 09:32:53;;;;;;;9.30;1.30;;;6.50;99.90;;;;;;4969639;28;20457;-61
2022/01/31 09:35:19;;;;;;;11.35;2.03;;;6.50;99.90;;;;;;4969052;28;20042;-61
2022/01/31 09:37:44;;;;;;;11.32;1.55;;;6.50;99.90;;;;;;4968810;28;20405;-62
2022/01/31 09:40:13;;;;;;;11.43;1.77;;;6.60;99.90;;;;;;4968793;28;20039;-61
2022/01/31 09:42:58;;;;;;;10.18;2.20;;;6.50;99.90;;;;;;4967996;28;20043;-62
2022/01/31 09:45:38;;;;;;;2.95;1.40;;;6.60;99.90;;;;;;4968496;28;20054;-62
2022/01/31 09:50:31;;;;;;;7.70;1.60;;;6.60;99.90;;;;;;4969220;28;20067;-62
2022/01/31 09:52:56;;;;;;;5.07;1.10;;;6.60;99.90;;;;;;4969036;28;20141;-62
2022/01/31 09:55:25;;;;;;;5.40;1.15;;;6.70;99.90;;;;;;4969219;28;20130;-62
2022/01/31 09:57:51;;;;;;;6.38;1.45;;;6.80;99.90;;;;;;4969680;28;20775;-62
2022/01/31 10:00:17;;;;;;;6.88;1.65;;;6.70;99.90;;;;;;4969237;28;20053;-62
2022/01/31 10:03:07;;;;;;;4.07;1.35;;;6.70;99.90;;;;;;4969281;28;20054;-61
2022/01/31 10:05:33;;;;;;;10.35;1.80;;;6.70;99.90;;;;;;4968708;28;20422;-62
2022/01/31 10:08:11;;;;;;;6.03;1.38;;;6.80;99.90;;;;;;4969068;28;20051;-62
2022/01/31 10:10:40;;;;;;;10.30;1.63;;;6.80;99.90;;;;;;4968811;28;20560;-62
2022/01/31 10:16:32;;;;;;;7.70;1.58;;;6.80;99.90;;;;;;4968778;28;20113;-62
2022/01/31 10:19:09;;;;;;;9.10;1.83;;;6.80;99.90;;;;;;4968316;28;20125;-62
2022/01/31 10:21:56;;;;;;;9.57;1.83;;;6.80;99.90;;;;;;4967890;28;20050;-62
2022/01/31 10:24:23;;;;;;;7.32;1.88;;;6.80;99.90;;;;;;4968648;28;20046;-62
2022/01/31 10:26:49;;;;;;;5.25;1.13;;;6.80;99.90;;;;;;4969055;28;20089;-62
2022/01/31 10:29:17;;;;;;;11.65;1.63;;;6.80;99.90;;;;;;4968123;28;20038;-62
2022/01/31 10:32:04;;;;;;;8.60;1.48;;;6.90;99.90;;;;;;4968625;28;20043;-63
2022/01/31 10:34:33;;;;;;;8.80;1.90;;;6.90;99.90;;;;;;4968220;28;20038;-62
2022/01/31 10:37:08;;;;;;;9.30;1.50;;;7.00;99.90;;;;;;4968327;28;20043;-63
2022/01/31 10:45:27;;;;;;;5.35;0.88;;;7.20;99.90;;;;;;4968458;28;20185;-63
2022/01/31 10:53:13;;;;;;;5.38;1.20;;;7.10;99.90;;;;;;4968039;28;20513;-63
2022/01/31 10:55:38;;;;;;;7.53;1.70;;;7.30;99.90;;;;;;4967236;28;20541;-63
2022/01/31 10:58:06;;;;;;;5.82;1.40;;;7.30;99.90;;;;;;4968603;28;20042;-63
2022/01/31 11:00:40;;;;;;;9.02;1.23;;;7.30;99.90;;;;;;4968417;28;20226;-62
2022/01/31 11:03:28;;;;;;;4.70;1.00;;;7.40;99.90;;;;;;4966950;28;20039;-62
2022/01/31 11:05:54;;;;;;;4.68;1.02;;;7.50;99.90;;;;;;4967974;28;20043;-63
2022/01/31 11:08:19;;;;;;;8.63;1.67;;;7.50;99.90;;;;;;4967920;28;20050;-63
2022/01/31 11:10:46;;;;;;;3.55;1.13;;;7.40;99.90;;;;;;4968255;28;20050;-63
2022/01/31 11:13:15;;;;;;;3.88;1.02;;;7.50;99.90;;;;;;4967988;28;20034;-63
2022/01/31 11:15:40;;;;;;;4.70;1.35;;;7.50;99.90;;;;;;4968368;28;20038;-62
2022/01/31 11:18:06;;;;;;;5.75;1.38;;;7.40;99.90;;;;;;4967915;28;20042;-63
2022/01/31 11:20:34;;;;;;;5.60;1.20;;;7.30;99.90;;;;;;4967797;28;20186;-63
2022/01/31 11:23:01;;;;;;;6.68;1.10;;;7.20;99.90;;;;;;4967499;28;20115;-62
2022/01/31 11:25:30;;;;;;;8.00;1.50;;;7.10;99.90;;;;;;4968025;28;20047;-63
2022/01/31 11:28:02;;;;;;;10.48;1.88;;;7.10;99.90;;;;;;4967837;28;20493;-63
2022/01/31 11:30:28;;;;;;;8.88;1.75;;;7.20;99.90;;;;;;4966961;28;20713;-63
2022/01/31 11:32:54;;;;;;;8.18;1.52;;;7.30;99.90;;;;;;4967486;28;20042;-63
2022/01/31 11:35:20;;;;;;;7.38;1.95;;;7.40;99.90;;;;;;4967654;28;20046;-63
2022/01/31 11:37:46;;;;;;;9.52;1.83;;;7.50;99.90;;;;;;4968119;28;20162;-63
2022/01/31 11:40:13;;;;;;;11.02;2.50;;;7.50;99.90;;;;;;4968019;28;20078;-63
2022/01/31 11:42:44;;;;;;;7.07;1.70;;;7.50;99.90;;;;;;4967284;28;20050;-63
2022/01/31 11:45:24;;;;;;;10.65;1.92;;;7.60;99.90;;;;;;4967903;28;20477;-63
2022/01/31 11:47:50;;;;;;;8.63;1.60;;;7.60;99.90;;;;;;4967788;28;20145;-63
2022/01/31 11:50:18;;;;;;;7.90;1.83;;;7.70;99.90;;;;;;4966310;28;20049;-63
2022/01/31 11:52:47;;;;;;;8.38;1.20;;;7.70;99.90;;;;;;4967520;28;20058;-62
2022/01/31 11:55:15;;;;;;;9.93;2.15;;;7.70;99.90;;;;;;4970533;28;20093;-63
2022/01/31 11:57:45;;;;;;;11.75;2.13;;;7.70;99.90;;;;;;4971681;28;20051;-63
2022/01/31 12:00:13;;;;;;;11.23;2.40;;;7.80;99.90;;;;;;4971330;28;20053;-63
2022/01/31 12:03:01;;;;;;;13.23;2.30;;;8.00;99.90;;;;;;4970142;28;20051;-63
2022/01/31 12:05:30;;;;;;;16.90;2.28;;;8.20;99.90;;;;;;4970060;28;20121;-62
2022/01/31 12:08:05;;;;;;;14.25;2.30;;;8.40;99.90;;;;;;4971562;28;20054;-63
2022/01/31 12:10:41;;;;;;;15.50;2.72;;;8.50;99.90;;;;;;4969955;28;20441;-63
2022/01/31 12:13:41;;;;;;;12.88;2.03;;;8.70;99.90;;;;;;4971495;28;20438;-63
2022/01/31 12:16:31;;;;;;;9.13;1.33;;;8.60;99.90;;;;;;4971370;28;20394;-63
2022/01/31 12:19:05;;;;;;;8.75;1.80;;;8.40;99.90;;;;;;4970694;28;20097;-63
2022/01/31 12:24:38;;;;;;;10.02;1.77;;;8.30;99.90;;;;;;4963658;28;20058;-63
2022/01/31 12:27:17;;;;;;;15.52;2.15;;;8.30;99.90;;;;;;4970778;28;20046;-63
2022/01/31 12:29:52;;;;;;;8.38;1.95;;;8.30;99.90;;;;;;4968612;28;20129;-63
2022/01/31 12:32:31;;;;;;;7.13;1.35;;;8.30;99.90;;;;;;4967003;28;20042;-65
2022/01/31 12:35:09;;;;;;;9.93;2.13;;;8.20;99.90;;;;;;4969396;28;20166;-65
2022/01/31 12:37:39;;;;;;;4.63;1.13;;;8.20;99.90;;;;;;4971171;28;20035;-65
2022/01/31 12:40:27;;;;;;;6.97;1.85;;;8.10;99.90;;;;;;4970574;28;20046;-64
2022/01/31 12:45:51;;;;;;;6.15;1.52;;;8.20;99.90;;;;;;4971020;28;20082;-64
2022/01/31 12:48:25;;;;;;;10.10;2.08;;;8.20;99.90;;;;;;4969638;28;20468;-64
2022/01/31 12:50:50;;;;;;;7.07;1.45;;;8.20;99.90;;;;;;4969541;28;20046;-64
2022/01/31 12:53:29;;;;;;;2.55;0.88;;;8.20;99.90;;;;;;4970235;28;20553;-64
2022/01/31 12:56:09;;;;;;;5.80;1.42;;;8.20;99.90;;;;;;4970610;28;20789;-64
2022/01/31 12:58:38;;;;;;;7.43;1.42;;;8.20;99.90;;;;;;4970451;28;20050;-64
2022/01/31 13:01:25;;;;;;;8.57;1.50;;;8.10;99.90;;;;;;4970452;28;20097;-64
2022/01/31 13:04:03;;;;;;;6.95;1.73;;;8.10;99.90;;;;;;4970426;28;20069;-64
2022/01/31 13:06:32;;;;;;;7.35;1.52;;;8.10;99.90;;;;;;4969466;28;20082;-64
2022/01/31 13:09:08;;;;;;;8.02;1.63;;;8.10;99.90;;;;;;4970190;28;20043;-65
2022/01/31 13:11:34;;;;;;;8.43;1.38;;;8.20;99.90;;;;;;4970401;28;20529;-65
2022/01/31 13:14:04;;;;;;;4.75;1.15;;;8.20;99.90;;;;;;4968335;28;20039;-65
2022/01/31 13:16:50;;;;;;;9.77;1.67;;;8.20;99.90;;;;;;4969012;28;20038;-65
2022/01/31 13:19:21;;;;;;;2.33;0.98;;;8.30;99.90;;;;;;4969781;28;20390;-65
2022/01/31 13:21:48;;;;;;;6.97;1.40;;;8.20;99.90;;;;;;4969756;28;20121;-64
2022/01/31 13:24:14;;;;;;;7.05;1.33;;;8.20;99.90;;;;;;4969164;28;20049;-62